createdAt,value
2023-02-23T00:03:42.302Z,98766.53
2023-02-23T00:06:13.871Z,98798.66
2023-02-23T00:09:01.362Z,98756.25
2023-02-23T00:11:49.908Z,98782.63
2023-02-23T00:14:38.394Z,98801.47
2023-02-23T00:17:25.698Z,98781.47
2023-02-23T00:20:12.959Z,98780.19
2023-02-23T00:23:00.201Z,98796.00
2023-02-23T00:25:47.385Z,98777.53
2023-02-23T00:28:34.585Z,98784.41
2023-02-23T00:31:26.354Z,98782.00
2023-02-23T00:34:15.700Z,98779.72
2023-02-23T00:37:02.833Z,98783.34
2023-02-23T00:39:50.343Z,98794.09
2023-02-23T00:42:41.586Z,98813.22
2023-02-23T00:45:28.776Z,98781.66
2023-02-23T00:48:15.849Z,98811.16
2023-02-23T00:51:05.126Z,98800.75
2023-02-23T00:53:55.324Z,98826.78
2023-02-23T00:56:43.084Z,98806.56
2023-02-23T00:59:30.262Z,98787.75
2023-02-23T01:02:17.456Z,98784.72
2023-02-23T01:05:05.102Z,98788.59
2023-02-23T01:07:52.260Z,98804.06
2023-02-23T01:10:43.314Z,98799.72
2023-02-23T01:13:30.405Z,98803.44
2023-02-23T01:16:20.979Z,98820.59
2023-02-23T01:19:08.171Z,98803.59
2023-02-23T01:21:55.310Z,98801.75
2023-02-23T01:24:43.075Z,98828.00
2023-02-23T01:27:30.205Z,98824.50
2023-02-23T01:30:17.572Z,98796.34
2023-02-23T01:33:05.115Z,98810.72
2023-02-23T01:36:01.131Z,98821.22
2023-02-23T01:38:49.861Z,98783.41
2023-02-23T01:41:37.904Z,98757.28
2023-02-23T01:44:25.281Z,98821.59
2023-02-23T01:47:15.069Z,98775.28
2023-02-23T01:50:02.351Z,98809.63
2023-02-23T01:52:52.309Z,98756.19
2023-02-23T01:55:40.057Z,98767.19
2023-02-23T01:58:27.727Z,98752.41
2023-02-23T02:01:03.817Z,98773.69
2023-02-23T02:03:52.561Z,98792.44
2023-02-23T02:06:29.414Z,98751.94
2023-02-23T02:09:10.633Z,98749.63
2023-02-23T02:11:46.670Z,98753.38
2023-02-23T02:14:31.826Z,98765.47
2023-02-23T02:20:01.222Z,98813.31
2023-02-23T02:23:20.076Z,98747.50
2023-02-23T02:26:21.206Z,98788.63
2023-02-23T02:32:01.118Z,98773.34
2023-02-23T02:35:07.665Z,98804.63
2023-02-23T02:38:16.886Z,98743.66
2023-02-23T02:41:04.106Z,98804.34
2023-02-23T02:43:56.204Z,98750.28
2023-02-23T02:46:25.694Z,98755.13
2023-02-23T02:52:05.981Z,98828.56
2023-02-23T02:54:57.675Z,98820.47
2023-02-23T02:57:47.015Z,98821.09
2023-02-23T03:01:02.913Z,98836.19
2023-02-23T03:04:09.051Z,98824.66
2023-02-23T03:07:29.202Z,98827.75
2023-02-23T03:11:10.818Z,98827.63
2023-02-23T03:14:40.058Z,98824.34
2023-02-23T03:18:12.637Z,98845.38
2023-02-23T03:21:24.652Z,98839.31
2023-02-23T03:24:53.409Z,98834.38
2023-02-23T03:28:26.752Z,98841.81
2023-02-23T03:31:45.984Z,98852.88
2023-02-23T03:35:01.586Z,98825.78
2023-02-23T03:38:25.130Z,98852.69
2023-02-23T03:41:34.182Z,98846.28
2023-02-23T03:44:54.945Z,98854.38
2023-02-23T03:48:03.283Z,98849.09
2023-02-23T03:51:13.047Z,98857.38
2023-02-23T03:54:31.072Z,98841.75
2023-02-23T03:57:39.941Z,98860.72
2023-02-23T04:00:53.340Z,98849.59
2023-02-23T04:04:03.465Z,98860.81
2023-02-23T04:07:09.985Z,98855.09
2023-02-23T04:10:15.761Z,98868.34
2023-02-23T04:13:29.053Z,98865.28
2023-02-23T04:16:16.453Z,98850.75
2023-02-23T04:19:03.585Z,98843.75
2023-02-23T04:21:50.799Z,98878.06
2023-02-23T04:24:37.846Z,98875.19
2023-02-23T04:27:24.968Z,98889.03
2023-02-23T04:30:12.574Z,98880.84
2023-02-23T04:32:59.688Z,98880.16
2023-02-23T04:35:46.744Z,98881.13
2023-02-23T04:38:33.772Z,98877.75
2023-02-23T04:41:21.023Z,98876.06
2023-02-23T04:44:08.171Z,98876.66
2023-02-23T04:46:56.914Z,98872.22
2023-02-23T04:49:44.597Z,98870.06
2023-02-23T04:52:31.663Z,98871.47
2023-02-23T04:55:22.116Z,98876.91
2023-02-23T04:58:13.825Z,98859.88
2023-02-23T05:01:09.888Z,98869.69
2023-02-23T05:03:57.134Z,98858.53
2023-02-23T05:06:44.246Z,98863.75
2023-02-23T05:09:32.020Z,98866.91
2023-02-23T05:12:19.223Z,98843.31
2023-02-23T05:15:07.005Z,98842.69
2023-02-23T05:17:56.787Z,98853.66
2023-02-23T05:20:47.740Z,98861.56
2023-02-23T05:23:37.980Z,98864.78
2023-02-23T05:26:25.024Z,98871.88
2023-02-23T05:29:12.949Z,98861.47
2023-02-23T05:32:00.054Z,98870.91
2023-02-23T05:34:47.310Z,98874.63
2023-02-23T05:37:34.868Z,98876.00
2023-02-23T05:40:22.005Z,98874.22
2023-02-23T05:43:09.144Z,98869.44
2023-02-23T05:45:57.292Z,98882.25
2023-02-23T05:48:44.339Z,98864.09
2023-02-23T05:51:34.662Z,98872.72
2023-02-23T05:54:22.343Z,98851.31
2023-02-23T05:57:09.391Z,98880.50
2023-02-23T05:59:56.503Z,98875.16
2023-02-23T06:02:43.787Z,98886.72
2023-02-23T06:05:31.137Z,98879.75
2023-02-23T06:08:18.328Z,98890.25
2023-02-23T06:11:05.646Z,98895.97
2023-02-23T06:13:52.669Z,98892.09
2023-02-23T06:16:39.853Z,98907.53
2023-02-23T06:19:27.115Z,98907.69
2023-02-23T06:22:14.334Z,98914.03
2023-02-23T06:25:04.764Z,98915.09
2023-02-23T06:27:51.862Z,98906.63
2023-02-23T06:30:40.205Z,98919.84
2023-02-23T06:33:27.399Z,98925.03
2023-02-23T06:36:14.544Z,98932.88
2023-02-23T06:39:02.250Z,98922.50
2023-02-23T06:41:49.407Z,98925.88
2023-02-23T06:44:37.358Z,98927.47
2023-02-23T06:47:24.386Z,98931.81
2023-02-23T06:50:12.051Z,98946.63
2023-02-23T06:52:59.132Z,98934.63
2023-02-23T06:55:46.821Z,98924.94
2023-02-23T06:58:33.849Z,98935.03
2023-02-23T07:01:21.436Z,98932.63
2023-02-23T07:04:08.602Z,98921.47
2023-02-23T07:06:55.721Z,98941.94
2023-02-23T07:09:43.074Z,98945.03
2023-02-23T07:12:30.700Z,98930.44
2023-02-23T07:15:17.978Z,98936.03
2023-02-23T07:18:05.358Z,98937.88
2023-02-23T07:20:52.385Z,98933.78
2023-02-23T07:23:39.476Z,98909.75
2023-02-23T07:26:27.597Z,98937.50
2023-02-23T07:29:14.767Z,98914.66
2023-02-23T07:32:01.946Z,98927.97
2023-02-23T07:34:49.147Z,98932.34
2023-02-23T07:37:36.626Z,98898.75
2023-02-23T07:40:24.514Z,98881.69
2023-02-23T07:43:11.815Z,98856.53
2023-02-23T07:46:06.315Z,98886.41
2023-02-23T07:49:22.339Z,98863.66
2023-02-23T07:52:12.968Z,98862.09
2023-02-23T07:55:00.190Z,98870.63
2023-02-23T07:57:47.860Z,98886.84
2023-02-23T08:00:39.095Z,98855.41
2023-02-23T08:03:32.765Z,98907.84
2023-02-23T08:06:25.523Z,98876.84
2023-02-23T08:09:19.338Z,98898.19
2023-02-23T08:12:11.004Z,98894.16
2023-02-23T08:15:03.979Z,98859.94
2023-02-23T08:17:56.708Z,98870.75
2023-02-23T08:20:48.564Z,98867.00
2023-02-23T08:23:41.220Z,98854.63
2023-02-23T08:26:31.303Z,98926.94
2023-02-23T08:29:18.846Z,98923.78
2023-02-23T08:32:12.577Z,98864.91
2023-02-23T08:35:01.338Z,98929.22
2023-02-23T08:37:52.049Z,98904.59
2023-02-23T08:40:43.306Z,98875.16
2023-02-23T08:43:33.584Z,98922.31
2023-02-23T08:46:26.466Z,98877.03
2023-02-23T08:49:14.155Z,98863.56
2023-02-23T08:52:04.458Z,98916.00
2023-02-23T08:54:56.127Z,98877.13
2023-02-23T08:57:43.325Z,98874.25
2023-02-23T09:00:40.966Z,98884.63
2023-02-23T09:03:34.896Z,98853.69
2023-02-23T09:06:28.128Z,98850.13
2023-02-23T09:09:17.485Z,98875.56
2023-02-23T09:12:15.853Z,98856.72
2023-02-23T09:15:03.644Z,98861.41
2023-02-23T09:17:51.764Z,98870.59
2023-02-23T09:20:45.309Z,98914.94
2023-02-23T09:23:37.436Z,98846.25
2023-02-23T09:26:26.529Z,98857.84
2023-02-23T09:29:14.113Z,98852.78
2023-02-23T09:32:01.445Z,98874.13
2023-02-23T09:34:48.930Z,98830.06
2023-02-23T09:37:44.715Z,98903.47
2023-02-23T09:40:50.864Z,98897.13
2023-02-23T09:43:47.952Z,98901.09
2023-02-23T09:46:40.448Z,98899.81
2023-02-23T09:49:36.909Z,98865.97
2023-02-23T09:52:28.425Z,98816.13
2023-02-23T09:55:17.008Z,98841.50
2023-02-23T09:58:18.510Z,98902.19
2023-02-23T10:01:14.616Z,98893.72
2023-02-23T10:04:15.071Z,98867.41
2023-02-23T10:07:09.034Z,98891.56
2023-02-23T10:10:17.433Z,98895.97
2023-02-23T10:13:17.014Z,98846.91
2023-02-23T10:16:22.940Z,98893.34
2023-02-23T10:19:21.168Z,98834.78
2023-02-23T10:22:10.867Z,98821.13
2023-02-23T10:25:06.911Z,98864.91
2023-02-23T10:27:55.995Z,98889.13
2023-02-23T10:30:44.061Z,98860.03
2023-02-23T10:33:38.558Z,98853.16
2023-02-23T10:36:36.161Z,98855.81
2023-02-23T10:39:23.405Z,98853.94
2023-02-23T10:42:20.658Z,98859.50
2023-02-23T10:45:23.304Z,98841.13
2023-02-23T10:48:18.959Z,98835.25
2023-02-23T10:51:13.373Z,98852.44
2023-02-23T10:54:36.568Z,98855.97
2023-02-23T10:57:27.931Z,98861.22
2023-02-23T11:00:18.302Z,98863.06
2023-02-23T11:03:21.858Z,98845.06
2023-02-23T11:06:31.420Z,98852.47
2023-02-23T11:10:21.707Z,98856.13
2023-02-23T11:12:42.668Z,98845.53
2023-02-23T11:15:50.805Z,98774.41
2023-02-23T11:18:40.772Z,98816.97
2023-02-23T11:21:40.241Z,98837.81
2023-02-23T11:24:32.745Z,98829.94
2023-02-23T11:27:34.981Z,98804.66
2023-02-23T11:30:25.539Z,98782.63
2023-02-23T11:33:29.830Z,98812.25
2023-02-23T11:36:38.138Z,98816.63
2023-02-23T11:39:25.410Z,98803.50
2023-02-23T11:42:17.150Z,98797.41
2023-02-23T11:45:08.231Z,98800.59
2023-02-23T11:47:59.669Z,98790.91
2023-02-23T11:50:49.194Z,98797.91
2023-02-23T11:53:46.222Z,98790.53
2023-02-23T11:56:35.615Z,98793.91
2023-02-23T11:59:31.122Z,98794.44
2023-02-23T12:02:31.303Z,98794.91
2023-02-23T12:05:25.838Z,98757.59
2023-02-23T12:08:28.135Z,98774.72
2023-02-23T12:11:22.185Z,98779.06
2023-02-23T12:14:41.389Z,98760.34
2023-02-23T12:17:38.567Z,98766.94
2023-02-23T12:20:29.624Z,98775.19
2023-02-23T12:23:22.081Z,98755.31
2023-02-23T12:26:18.122Z,98764.03
2023-02-23T12:29:21.814Z,98768.25
2023-02-23T12:32:19.862Z,98768.63
2023-02-23T12:35:31.448Z,98770.31
2023-02-23T12:38:40.654Z,98762.06
2023-02-23T12:41:40.533Z,98771.13
2023-02-23T12:44:40.444Z,98744.38
2023-02-23T12:47:49.489Z,98739.50
2023-02-23T12:50:48.390Z,98753.75
2023-02-23T12:53:42.349Z,98749.78
2023-02-23T12:56:42.633Z,98753.38
2023-02-23T12:59:45.125Z,98746.94
2023-02-23T13:02:48.748Z,98739.56
2023-02-23T13:05:44.675Z,98737.22
2023-02-23T13:08:47.089Z,98744.72
2023-02-23T13:11:54.048Z,98742.19
2023-02-23T13:14:43.998Z,98736.22
2023-02-23T13:17:33.415Z,98732.16
2023-02-23T13:20:55.861Z,98733.06
2023-02-23T13:23:48.892Z,98729.22
2023-02-23T13:27:01.341Z,98732.66
2023-02-23T13:29:55.580Z,98728.56
2023-02-23T13:32:45.375Z,98668.19
2023-02-23T13:35:35.946Z,98726.78
2023-02-23T13:38:32.395Z,98712.75
2023-02-23T13:41:37.448Z,98695.47
2023-02-23T13:45:16.817Z,98718.91
2023-02-23T13:48:19.003Z,98732.00
2023-02-23T13:51:27.157Z,98695.06
2023-02-23T13:54:14.863Z,98728.91
2023-02-23T13:57:16.839Z,98697.69
2023-02-23T14:00:04.456Z,98696.38
2023-02-23T14:02:53.757Z,98700.63
2023-02-23T14:05:45.381Z,98721.66
2023-02-23T14:08:45.536Z,98697.16
2023-02-23T14:14:04.714Z,98663.06
2023-02-23T14:16:43.803Z,98729.00
2023-02-23T14:19:39.444Z,98717.88
2023-02-23T14:22:28.408Z,98662.41
2023-02-23T14:25:33.684Z,98724.44
2023-02-23T14:28:31.280Z,98691.34
2023-02-23T14:31:23.027Z,98671.06
2023-02-23T14:34:09.091Z,98657.81
2023-02-23T14:36:44.458Z,98719.47
2023-02-23T14:39:25.245Z,98723.97
2023-02-23T14:42:08.176Z,98690.13
2023-02-23T14:44:45.417Z,98719.41
2023-02-23T14:47:27.136Z,98650.41
2023-02-23T14:50:08.498Z,98718.41
2023-02-23T14:52:44.047Z,98651.75
2023-02-23T14:55:27.371Z,98717.38
2023-02-23T15:01:40.253Z,98655.97
2023-02-23T15:04:41.292Z,98655.69
2023-02-23T15:07:33.235Z,98696.19
2023-02-23T15:10:09.328Z,98709.63
2023-02-23T15:12:44.744Z,98683.91
2023-02-23T15:15:25.144Z,98700.03
2023-02-23T15:18:04.653Z,98671.81
2023-02-23T15:20:44.544Z,98707.94
2023-02-23T15:23:25.233Z,98629.66
2023-02-23T15:35:15.843Z,98639.72
2023-02-23T15:38:40.469Z,98631.69
2023-02-23T15:43:48.160Z,98705.28
2023-02-23T15:46:34.242Z,98712.00
2023-02-23T15:49:11.698Z,98710.81
2023-02-23T15:57:53.462Z,98709.13
2023-02-23T16:00:47.914Z,98671.75
2023-02-23T16:03:38.043Z,98643.69
2023-02-23T16:06:33.383Z,98650.56
2023-02-23T16:11:44.984Z,98642.44
2023-02-23T16:14:28.614Z,98700.88
2023-02-23T16:25:07.351Z,98691.16
2023-02-23T16:28:00.757Z,98680.22
2023-02-23T16:31:01.597Z,98693.81
2023-02-23T16:33:57.295Z,98693.50
2023-02-23T16:36:49.949Z,98694.66
2023-02-23T16:39:37.479Z,98684.88
2023-02-23T16:42:35.060Z,98684.31
2023-02-23T16:45:22.653Z,98689.72
2023-02-23T16:48:18.464Z,98696.94
2023-02-23T16:51:13.686Z,98690.72
2023-02-23T16:54:01.005Z,98699.16
2023-02-23T16:56:49.777Z,98684.00
2023-02-23T16:59:38.470Z,98692.28
2023-02-23T17:02:26.060Z,98687.91
2023-02-23T17:05:16.244Z,98688.09
2023-02-23T17:08:06.047Z,98680.03
2023-02-23T17:10:56.112Z,98688.09
2023-02-23T17:13:43.520Z,98693.97
2023-02-23T17:16:31.848Z,98685.03
2023-02-23T17:19:23.557Z,98688.88
2023-02-23T17:22:14.871Z,98693.66
2023-02-23T17:25:03.410Z,98696.69
2023-02-23T17:27:53.966Z,98691.38
2023-02-23T17:30:43.225Z,98686.25
2023-02-23T17:33:35.243Z,98695.22
2023-02-23T17:36:24.049Z,98694.63
2023-02-23T17:39:14.638Z,98690.72
2023-02-23T17:42:02.552Z,98701.41
2023-02-23T17:44:53.591Z,98693.00
2023-02-23T17:47:43.137Z,98702.41
2023-02-23T17:50:30.773Z,98704.72
2023-02-23T17:53:21.524Z,98698.44
2023-02-23T17:56:10.136Z,98683.66
2023-02-23T17:58:58.171Z,98694.69
2023-02-23T18:01:48.912Z,98692.41
2023-02-23T18:04:39.057Z,98685.63
2023-02-23T18:07:26.901Z,98687.66
2023-02-23T18:10:15.337Z,98686.75
2023-02-23T18:13:04.452Z,98694.41
2023-02-23T18:15:54.957Z,98691.34
2023-02-23T18:18:46.564Z,98693.72
2023-02-23T18:21:35.406Z,98693.47
2023-02-23T18:24:25.970Z,98688.66
2023-02-23T18:27:14.811Z,98692.88
2023-02-23T18:30:02.689Z,98684.69
2023-02-23T18:32:52.891Z,98695.19
2023-02-23T18:35:47.716Z,98690.66
2023-02-23T18:38:35.705Z,98670.59
2023-02-23T18:41:26.747Z,98691.28
2023-02-23T18:44:28.250Z,98693.59
2023-02-23T18:47:16.415Z,98690.59
2023-02-23T18:50:04.861Z,98685.47
2023-02-23T18:52:55.227Z,98680.59
2023-02-23T18:55:45.501Z,98683.69
2023-02-23T18:58:35.544Z,98688.50
2023-02-23T19:01:25.392Z,98689.72
2023-02-23T19:04:13.509Z,98686.38
2023-02-23T19:07:03.186Z,98685.00
2023-02-23T19:09:52.228Z,98685.63
2023-02-23T19:12:41.199Z,98681.81
2023-02-23T19:15:29.418Z,98682.13
2023-02-23T19:18:17.695Z,98688.59
2023-02-23T19:21:07.095Z,98683.34
2023-02-23T19:23:59.702Z,98689.66
2023-02-23T19:26:47.611Z,98695.94
2023-02-23T19:29:36.201Z,98692.59
2023-02-23T19:32:25.644Z,98689.94
2023-02-23T19:35:17.952Z,98679.63
2023-02-23T19:38:08.733Z,98689.06
2023-02-23T19:40:58.740Z,98693.16
2023-02-23T19:43:47.349Z,98689.94
2023-02-23T19:46:36.975Z,98697.78
2023-02-23T19:49:27.533Z,98697.44
2023-02-23T19:52:17.046Z,98696.50
2023-02-23T19:55:06.518Z,98677.16
2023-02-23T19:57:57.255Z,98686.19
2023-02-23T20:00:47.647Z,98687.78
2023-02-23T20:03:35.954Z,98697.13
2023-02-23T20:06:28.386Z,98691.00
2023-02-23T20:09:17.813Z,98683.41
2023-02-23T20:12:08.998Z,98688.22
2023-02-23T20:14:58.339Z,98673.81
2023-02-23T20:17:47.585Z,98681.75
2023-02-23T20:20:36.800Z,98697.72
2023-02-23T20:23:25.270Z,98692.13
2023-02-23T20:26:16.674Z,98682.50
2023-02-23T20:29:07.475Z,98666.19
2023-02-23T20:31:56.082Z,98675.38
2023-02-23T20:34:46.488Z,98682.34
2023-02-23T20:37:34.773Z,98683.09
2023-02-23T20:40:23.848Z,98680.38
2023-02-23T20:43:15.037Z,98664.88
2023-02-23T20:46:03.626Z,98663.13
2023-02-23T20:48:51.790Z,98669.47
2023-02-23T20:51:40.822Z,98675.66
2023-02-23T20:54:28.795Z,98673.13
2023-02-23T20:57:16.937Z,98655.97
2023-02-23T21:00:12.365Z,98671.34
2023-02-23T21:03:03.257Z,98672.28
2023-02-23T21:05:53.501Z,98669.53
2023-02-23T21:08:42.781Z,98660.88
2023-02-23T21:11:34.517Z,98660.66
2023-02-23T21:14:22.471Z,98669.06
2023-02-23T21:17:11.256Z,98663.41
2023-02-23T21:19:59.442Z,98656.28
2023-02-23T21:22:50.162Z,98654.88
2023-02-23T21:25:38.420Z,98653.00
2023-02-23T21:28:26.656Z,98651.84
2023-02-23T21:31:16.769Z,98647.25
2023-02-23T21:34:06.598Z,98666.28
2023-02-23T21:36:53.853Z,98658.00
2023-02-23T21:39:41.672Z,98658.91
2023-02-23T21:42:30.102Z,98649.97
2023-02-23T21:45:21.584Z,98641.53
2023-02-23T21:48:10.758Z,98651.31
2023-02-23T21:51:07.288Z,98650.13
2023-02-23T21:53:58.120Z,98648.28
2023-02-23T21:56:45.398Z,98644.06
2023-02-23T21:59:35.323Z,98650.03
2023-02-23T22:02:22.874Z,98647.25
2023-02-23T22:05:10.182Z,98649.28
2023-02-23T22:07:57.250Z,98644.28
2023-02-23T22:10:44.441Z,98640.50
2023-02-23T22:13:31.505Z,98624.75
2023-02-23T22:16:19.547Z,98641.06
2023-02-23T22:19:07.145Z,98625.03
2023-02-23T22:21:55.298Z,98633.13
2023-02-23T22:24:42.370Z,98632.28
2023-02-23T22:27:29.668Z,98637.94
2023-02-23T22:30:16.947Z,98620.28
2023-02-23T22:33:04.142Z,98627.78
2023-02-23T22:35:51.345Z,98618.28
2023-02-23T22:38:39.147Z,98620.13
2023-02-23T22:41:29.728Z,98633.38
2023-02-23T22:44:19.352Z,98621.97
2023-02-23T22:47:07.548Z,98622.56
2023-02-23T22:49:54.889Z,98616.28
2023-02-23T22:52:43.190Z,98616.38
2023-02-23T22:55:30.372Z,98609.53
2023-02-23T22:58:20.236Z,98620.78
2023-02-23T23:01:09.874Z,98612.31
2023-02-23T23:03:57.165Z,98616.03
2023-02-23T23:06:44.718Z,98606.84
2023-02-23T23:09:31.729Z,98601.19
2023-02-23T23:12:18.798Z,98612.47
2023-02-23T23:15:07.362Z,98620.50
2023-02-23T23:17:54.422Z,98615.19
2023-02-23T23:20:43.987Z,98620.09
2023-02-23T23:23:31.119Z,98606.06
2023-02-23T23:26:20.323Z,98615.13
2023-02-23T23:29:11.411Z,98618.25
2023-02-23T23:31:58.862Z,98611.25
2023-02-23T23:34:49.602Z,98605.56
2023-02-23T23:37:39.969Z,98620.13
2023-02-23T23:40:27.289Z,98617.78
2023-02-23T23:43:14.952Z,98615.41
2023-02-23T23:46:05.398Z,98584.28
2023-02-23T23:48:57.258Z,98606.47
2023-02-23T23:51:50.507Z,98597.38
2023-02-23T23:54:42.936Z,98599.88
2023-02-23T23:57:32.704Z,98587.13
